Time;durP1;ratioP1;P1;durP2;ratioP2;P2;SDS_P1;SDS_P2;PMS_P1;PMS_P2;Temp;Humidity;BMP_temperature;BMP_pressure;BME280_temperature;BME280_humidity;BME280_pressure;Samples;Min_cycle;Max_cycle;Signal;HPM_P1;HPM_P2
2021/12/27 00:01:25;;;;;;;15.87;11.40;;;4.40;89.80;;;;;;4963067;28;20804;-46
2021/12/27 00:03:54;;;;;;;16.57;11.57;;;4.40;89.80;;;;;;4962062;28;20554;-46
2021/12/27 00:06:21;;;;;;;16.10;10.87;;;4.40;89.80;;;;;;4965040;28;20527;-46
2021/12/27 00:08:50;;;;;;;14.60;10.83;;;4.40;89.80;;;;;;4963704;28;20451;-46
2021/12/27 00:11:17;;;;;;;17.13;11.20;;;4.50;89.80;;;;;;4963285;28;20458;-46
2021/12/27 00:13:44;;;;;;;15.70;10.90;;;4.50;89.80;;;;;;4953309;28;20500;-46
2021/12/27 00:16:11;;;;;;;16.60;11.47;;;4.50;89.80;;;;;;4963844;28;20474;-46
2021/12/27 00:18:38;;;;;;;16.00;11.70;;;4.50;89.80;;;;;;4966904;28;20506;-45
2021/12/27 00:21:04;;;;;;;17.40;11.40;;;4.50;89.80;;;;;;4965898;28;20485;-46
2021/12/27 00:23:32;;;;;;;14.67;10.57;;;4.40;89.80;;;;;;4962036;28;20489;-46
2021/12/27 00:25:59;;;;;;;17.97;11.80;;;4.40;89.80;;;;;;4945360;28;20489;-46
2021/12/27 00:28:27;;;;;;;13.70;11.00;;;4.50;89.80;;;;;;4963483;28;20477;-47
2021/12/27 00:30:54;;;;;;;20.73;10.20;;;4.50;89.80;;;;;;4965655;28;20461;-46
2021/12/27 00:33:20;;;;;;;16.30;12.07;;;4.50;89.80;;;;;;4962530;28;20501;-46
2021/12/27 00:35:48;;;;;;;18.90;12.33;;;4.50;89.80;;;;;;4961813;28;20833;-46
2021/12/27 00:38:15;;;;;;;15.47;11.90;;;4.50;89.80;;;;;;4961483;28;20837;-45
2021/12/27 00:40:42;;;;;;;17.30;13.10;;;4.50;89.80;;;;;;4964670;28;20455;-46
2021/12/27 00:43:09;;;;;;;18.50;11.37;;;4.50;89.80;;;;;;4961585;28;20477;-45
2021/12/27 00:45:37;;;;;;;18.90;12.20;;;4.50;89.80;;;;;;4962801;28;21181;-46
2021/12/27 00:48:04;;;;;;;16.73;11.53;;;4.40;89.80;;;;;;4963781;28;20535;-47
2021/12/27 00:50:31;;;;;;;17.30;12.57;;;4.50;89.80;;;;;;4961749;28;20465;-47
2021/12/27 00:52:57;;;;;;;16.67;11.27;;;4.50;89.80;;;;;;4964797;28;20493;-46
2021/12/27 00:55:24;;;;;;;14.83;12.07;;;4.50;89.80;;;;;;4962127;28;20987;-46
2021/12/27 00:57:53;;;;;;;15.07;11.20;;;4.50;89.80;;;;;;4963287;28;20512;-47
2021/12/27 01:00:22;;;;;;;16.10;11.20;;;4.50;89.80;;;;;;4962863;28;20978;-46
2021/12/27 01:02:49;;;;;;;13.53;10.30;;;4.50;89.80;;;;;;4962631;28;20465;-47
2021/12/27 01:05:16;;;;;;;14.10;10.50;;;4.50;89.80;;;;;;4960252;28;20473;-46
2021/12/27 01:07:44;;;;;;;15.47;10.97;;;4.50;89.80;;;;;;4963372;28;20466;-46
2021/12/27 01:15:47;;;;;;;13.77;10.60;;;4.50;89.80;;;;;;4964097;28;20864;-46
2021/12/27 01:18:16;;;;;;;14.47;9.90;;;4.50;89.80;;;;;;4960225;28;20580;-46
2021/12/27 01:20:44;;;;;;;15.53;10.07;;;4.50;89.80;;;;;;4963982;28;20489;-46
2021/12/27 01:23:11;;;;;;;13.43;9.50;;;4.50;89.80;;;;;;4965816;28;20475;-46
2021/12/27 01:25:38;;;;;;;18.63;10.37;;;4.50;89.80;;;;;;4961574;28;20458;-46
2021/12/27 01:28:06;;;;;;;15.00;11.87;;;4.50;89.80;;;;;;4962385;28;20549;-46
2021/12/27 01:30:37;;;;;;;18.33;10.97;;;4.50;89.80;;;;;;4963151;28;20457;-46
2021/12/27 01:33:05;;;;;;;13.00;9.30;;;4.60;89.80;;;;;;4962932;28;20526;-46
2021/12/27 01:35:34;;;;;;;13.90;11.20;;;4.50;89.80;;;;;;4964192;28;20466;-45
2021/12/27 01:38:02;;;;;;;14.40;10.43;;;4.60;89.80;;;;;;4961698;28;20564;-45
2021/12/27 01:40:30;;;;;;;12.63;8.97;;;4.60;89.80;;;;;;4965338;28;20474;-46
2021/12/27 01:43:06;;;;;;;12.60;9.10;;;4.60;89.80;;;;;;4963162;28;20459;-46
2021/12/27 01:46:00;;;;;;;15.77;10.20;;;4.60;89.80;;;;;;4941998;28;20882;-46
2021/12/27 01:48:32;;;;;;;12.67;9.60;;;4.60;89.80;;;;;;4955870;28;20849;-46
2021/12/27 01:51:01;;;;;;;14.03;9.83;;;4.60;89.80;;;;;;4976464;28;20470;-46
2021/12/27 01:53:32;;;;;;;13.37;9.97;;;4.60;89.80;;;;;;4962782;28;20573;-46
2021/12/27 01:56:00;;;;;;;14.63;10.13;;;4.60;89.80;;;;;;4959849;28;20563;-46
2021/12/27 01:58:27;;;;;;;13.70;9.87;;;4.60;89.80;;;;;;4963067;28;21466;-47
2021/12/27 02:00:58;;;;;;;16.10;10.50;;;4.60;89.80;;;;;;4964165;28;20462;-46
2021/12/27 02:03:31;;;;;;;16.57;10.47;;;4.60;89.80;;;;;;4960674;28;20956;-46
2021/12/27 02:06:05;;;;;;;14.57;9.90;;;4.60;89.80;;;;;;4965360;28;20553;-46
2021/12/27 02:08:35;;;;;;;15.03;10.87;;;4.60;89.80;;;;;;4963175;28;20468;-46
2021/12/27 02:11:02;;;;;;;16.53;11.23;;;4.60;89.80;;;;;;4960081;28;20447;-46
2021/12/27 02:13:29;;;;;;;13.97;10.87;;;4.60;89.80;;;;;;4962104;28;20508;-47
2021/12/27 02:15:56;;;;;;;14.03;11.23;;;4.60;89.80;;;;;;4961182;28;20466;-46
2021/12/27 02:18:23;;;;;;;17.93;11.43;;;4.60;89.80;;;;;;4964754;28;20463;-45
2021/12/27 02:20:50;;;;;;;21.90;12.93;;;4.60;89.80;;;;;;4963266;28;20471;-45
2021/12/27 02:23:18;;;;;;;16.43;11.20;;;4.60;89.80;;;;;;4962945;28;20482;-46
2021/12/27 02:25:47;;;;;;;19.73;11.93;;;4.60;89.80;;;;;;4944132;28;20901;-46
2021/12/27 02:28:16;;;;;;;18.23;12.00;;;4.60;89.80;;;;;;4961260;28;20808;-45
2021/12/27 02:30:44;;;;;;;17.50;10.70;;;4.60;89.80;;;;;;4963765;28;20956;-46
2021/12/27 02:33:12;;;;;;;17.63;10.90;;;4.60;89.80;;;;;;4960250;28;20518;-46
2021/12/27 02:35:45;;;;;;;16.40;10.17;;;4.60;89.80;;;;;;4958320;28;20773;-46
2021/12/27 02:38:17;;;;;;;16.50;11.07;;;4.60;89.80;;;;;;4963400;28;21162;-46
2021/12/27 02:40:45;;;;;;;14.07;10.80;;;4.60;89.80;;;;;;4962828;28;20454;-46
2021/12/27 02:43:15;;;;;;;17.40;10.80;;;4.60;89.80;;;;;;4982034;28;20457;-46
2021/12/27 02:45:45;;;;;;;19.13;11.10;;;4.60;89.80;;;;;;4958875;28;20471;-46
2021/12/27 02:48:13;;;;;;;14.23;9.83;;;4.60;89.80;;;;;;4961435;28;20470;-46
2021/12/27 02:50:42;;;;;;;20.00;11.90;;;4.60;89.80;;;;;;4961884;28;20463;-47
2021/12/27 02:53:10;;;;;;;17.87;11.03;;;4.60;89.80;;;;;;4963055;28;20486;-46
2021/12/27 02:55:37;;;;;;;14.90;10.20;;;4.60;89.80;;;;;;4965862;28;20455;-46
2021/12/27 02:58:05;;;;;;;22.90;12.17;;;4.60;89.80;;;;;;4960691;28;20468;-46
2021/12/27 03:00:52;;;;;;;21.20;11.10;;;4.60;89.80;;;;;;4962958;28;20542;-46
2021/12/27 03:03:19;;;;;;;17.13;10.73;;;4.60;89.80;;;;;;4975297;28;22046;-46
2021/12/27 03:05:47;;;;;;;17.57;10.33;;;4.60;89.80;;;;;;4962799;28;20463;-46
2021/12/27 03:08:16;;;;;;;15.60;10.53;;;4.60;89.80;;;;;;4975253;28;20524;-46
2021/12/27 03:10:46;;;;;;;20.30;11.87;;;4.60;89.80;;;;;;4960732;28;20475;-46
2021/12/27 03:13:24;;;;;;;19.30;11.43;;;4.70;89.80;;;;;;4963765;28;20481;-45
2021/12/27 03:15:59;;;;;;;21.30;10.47;;;4.70;89.80;;;;;;4963446;28;20452;-46
2021/12/27 03:18:27;;;;;;;21.40;11.30;;;4.70;89.80;;;;;;4960563;28;20477;-46
2021/12/27 03:20:55;;;;;;;18.87;10.80;;;4.70;89.80;;;;;;4966301;28;20857;-46
2021/12/27 03:23:22;;;;;;;19.77;11.40;;;4.70;89.80;;;;;;4960104;28;20558;-46
2021/12/27 03:25:51;;;;;;;21.37;12.83;;;4.70;89.80;;;;;;4962888;28;20466;-46
2021/12/27 03:28:17;;;;;;;23.80;13.10;;;4.70;89.80;;;;;;4973822;28;20463;-46
2021/12/27 03:30:45;;;;;;;16.83;10.50;;;4.70;89.80;;;;;;4961677;28;20478;-46
2021/12/27 03:33:13;;;;;;;19.67;10.37;;;4.70;89.80;;;;;;4977091;28;20497;-47
2021/12/27 03:35:51;;;;;;;25.00;13.43;;;4.70;89.80;;;;;;4962469;28;20458;-47
2021/12/27 03:38:18;;;;;;;16.90;11.67;;;4.70;89.80;;;;;;4960112;28;20497;-47
2021/12/27 03:40:48;;;;;;;20.30;12.83;;;4.70;89.80;;;;;;4963358;28;20489;-47
2021/12/27 03:43:15;;;;;;;25.37;12.80;;;4.70;89.80;;;;;;4947321;28;20473;-47
2021/12/27 03:45:41;;;;;;;19.23;11.23;;;4.70;89.80;;;;;;4963196;28;20470;-47
2021/12/27 03:48:10;;;;;;;15.30;10.70;;;4.70;89.80;;;;;;4962250;28;20484;-45
2021/12/27 03:50:38;;;;;;;20.53;11.93;;;4.70;89.80;;;;;;4961284;28;20470;-45
2021/12/27 03:53:05;;;;;;;21.30;11.47;;;4.70;89.80;;;;;;4962564;28;20498;-46
2021/12/27 03:55:33;;;;;;;27.67;13.27;;;4.60;89.80;;;;;;4965198;28;20887;-46
2021/12/27 03:58:11;;;;;;;24.50;12.37;;;4.70;89.80;;;;;;4964306;28;20459;-46
2021/12/27 04:00:49;;;;;;;21.33;11.00;;;4.70;89.80;;;;;;4963245;28;20466;-45
2021/12/27 04:03:17;;;;;;;20.47;11.03;;;4.70;89.80;;;;;;4965032;28;20835;-45
2021/12/27 04:05:44;;;;;;;19.27;11.10;;;4.70;89.80;;;;;;4967830;28;20890;-45
2021/12/27 04:08:11;;;;;;;21.20;13.27;;;4.70;89.80;;;;;;4966800;28;20551;-45
2021/12/27 04:10:40;;;;;;;22.70;13.77;;;4.70;89.80;;;;;;4962486;28;20545;-46
2021/12/27 04:13:09;;;;;;;22.73;13.80;;;4.70;89.80;;;;;;4949408;28;20502;-46
2021/12/27 04:15:37;;;;;;;23.93;13.47;;;4.70;89.80;;;;;;4961649;28;20970;-45
2021/12/27 04:18:05;;;;;;;22.60;11.73;;;4.70;89.80;;;;;;4966186;28;20470;-45
2021/12/27 04:20:32;;;;;;;20.13;12.20;;;4.70;89.80;;;;;;4964791;28;20496;-45
2021/12/27 04:22:58;;;;;;;21.20;12.70;;;4.70;89.80;;;;;;4962471;28;21001;-46
2021/12/27 04:25:25;;;;;;;25.67;12.67;;;4.70;89.80;;;;;;4966007;28;20472;-45
2021/12/27 04:27:52;;;;;;;22.97;12.20;;;4.70;89.80;;;;;;4963725;28;20979;-45
2021/12/27 04:30:20;;;;;;;17.10;10.97;;;4.70;89.80;;;;;;4967204;28;20463;-45
2021/12/27 04:32:49;;;;;;;21.80;11.40;;;4.70;89.80;;;;;;4962353;28;20502;-44
2021/12/27 04:35:18;;;;;;;21.30;10.87;;;4.70;89.80;;;;;;4962219;28;20463;-45
2021/12/27 04:37:46;;;;;;;15.20;10.57;;;4.70;89.80;;;;;;4964112;28;20835;-45
2021/12/27 04:40:15;;;;;;;22.97;12.07;;;4.70;89.80;;;;;;4960045;28;20465;-44
2021/12/27 04:42:45;;;;;;;15.13;10.70;;;4.70;89.80;;;;;;4960889;28;20473;-46
2021/12/27 04:45:14;;;;;;;17.87;12.00;;;4.70;89.80;;;;;;4968385;28;20466;-46
2021/12/27 04:47:42;;;;;;;20.83;11.40;;;4.70;89.80;;;;;;4953786;28;21271;-46
2021/12/27 04:50:10;;;;;;;18.97;10.10;;;4.70;89.80;;;;;;4963777;28;20493;-45
2021/12/27 04:52:36;;;;;;;18.60;10.00;;;4.70;89.80;;;;;;4959219;28;20459;-45
2021/12/27 04:55:04;;;;;;;16.50;10.90;;;4.70;89.80;;;;;;4968419;28;20500;-45
2021/12/27 04:57:31;;;;;;;15.70;9.93;;;4.70;89.80;;;;;;4961720;28;20585;-45
2021/12/27 04:59:58;;;;;;;18.37;10.27;;;4.70;89.80;;;;;;4964711;28;20557;-45
2021/12/27 05:02:25;;;;;;;14.70;10.23;;;4.70;89.80;;;;;;4961270;28;20462;-45
2021/12/27 05:04:51;;;;;;;16.40;9.53;;;4.70;89.80;;;;;;4962214;28;20469;-46
2021/12/27 05:07:18;;;;;;;16.93;10.20;;;4.70;89.80;;;;;;4962084;28;21089;-46
2021/12/27 05:09:45;;;;;;;16.70;9.90;;;4.70;89.80;;;;;;4967389;28;20471;-46
2021/12/27 05:12:11;;;;;;;11.97;8.67;;;4.70;89.80;;;;;;4962021;28;21048;-45
2021/12/27 05:14:38;;;;;;;15.87;10.00;;;4.80;89.80;;;;;;4958660;28;20494;-46
2021/12/27 05:17:05;;;;;;;14.63;8.33;;;4.80;89.80;;;;;;4961011;28;20479;-46
2021/12/27 05:19:32;;;;;;;11.53;7.40;;;4.80;89.80;;;;;;4962933;28;20828;-45
2021/12/27 05:21:59;;;;;;;13.73;8.30;;;4.80;89.80;;;;;;4963860;28;20514;-45
2021/12/27 05:24:27;;;;;;;12.00;7.73;;;4.80;89.80;;;;;;4953580;28;21007;-46
2021/12/27 05:26:55;;;;;;;12.60;7.77;;;4.80;89.80;;;;;;4964586;28;20470;-46
2021/12/27 05:29:22;;;;;;;12.60;8.13;;;4.80;89.80;;;;;;4965620;28;20968;-46
2021/12/27 05:31:50;;;;;;;11.50;8.60;;;4.80;89.80;;;;;;4967471;28;20469;-45
2021/12/27 05:34:16;;;;;;;13.87;8.27;;;4.80;89.80;;;;;;4964881;28;20521;-45
2021/12/27 05:36:46;;;;;;;15.97;9.50;;;4.80;89.80;;;;;;4962253;28;20489;-46
2021/12/27 05:39:16;;;;;;;10.90;7.20;;;4.80;89.80;;;;;;4962726;28;20474;-46
2021/12/27 05:41:43;;;;;;;9.77;7.13;;;4.80;89.80;;;;;;4964630;28;20509;-45
2021/12/27 05:44:10;;;;;;;13.40;8.43;;;4.80;89.80;;;;;;4964833;28;20562;-46
2021/12/27 05:46:37;;;;;;;15.87;7.27;;;4.80;89.80;;;;;;4963166;28;20466;-46
2021/12/27 05:49:04;;;;;;;13.17;7.80;;;4.80;89.80;;;;;;4964817;28;20967;-46
2021/12/27 05:51:31;;;;;;;11.10;8.23;;;4.80;89.80;;;;;;4947333;28;20972;-44
2021/12/27 05:53:57;;;;;;;17.23;9.00;;;4.80;89.80;;;;;;4979951;28;20509;-45
2021/12/27 05:56:24;;;;;;;17.33;8.33;;;4.80;89.80;;;;;;4962765;28;20462;-45
2021/12/27 05:58:51;;;;;;;14.80;8.43;;;4.80;89.80;;;;;;4966132;28;20463;-45
2021/12/27 06:01:18;;;;;;;17.77;10.03;;;4.80;89.80;;;;;;4961169;28;20481;-45
2021/12/27 06:03:45;;;;;;;16.90;9.07;;;4.80;89.80;;;;;;4965794;28;20553;-46
2021/12/27 06:06:11;;;;;;;14.17;8.27;;;4.80;89.80;;;;;;4961340;28;20470;-45
2021/12/27 06:08:38;;;;;;;17.40;9.37;;;4.80;89.80;;;;;;4963739;28;20478;-45
2021/12/27 06:11:05;;;;;;;14.80;8.67;;;4.90;89.80;;;;;;4963216;28;20842;-45
2021/12/27 06:13:35;;;;;;;16.00;10.00;;;4.90;89.80;;;;;;4963045;28;20494;-45
2021/12/27 06:16:02;;;;;;;16.17;10.27;;;4.90;89.80;;;;;;4975856;28;20501;-45
2021/12/27 06:18:29;;;;;;;20.70;9.53;;;4.90;89.80;;;;;;4943564;28;20533;-45
2021/12/27 06:20:55;;;;;;;16.60;10.73;;;4.90;89.80;;;;;;4962275;28;20490;-45
2021/12/27 06:23:22;;;;;;;16.57;8.87;;;4.90;89.80;;;;;;4961014;28;20563;-46
2021/12/27 06:25:49;;;;;;;14.77;8.83;;;4.90;89.80;;;;;;4961964;28;20470;-45
2021/12/27 06:28:17;;;;;;;13.87;8.40;;;4.90;89.80;;;;;;4965397;28;20454;-45
2021/12/27 06:30:46;;;;;;;18.00;10.93;;;4.90;89.80;;;;;;4961485;28;20560;-46
2021/12/27 06:33:13;;;;;;;19.43;11.23;;;4.90;89.80;;;;;;4958432;28;20505;-45
2021/12/27 06:35:39;;;;;;;20.33;11.37;;;4.90;89.80;;;;;;4962411;28;20463;-46
2021/12/27 06:38:06;;;;;;;14.10;8.80;;;4.90;89.80;;;;;;4964183;28;20485;-45
2021/12/27 06:40:33;;;;;;;19.60;10.53;;;4.90;89.80;;;;;;4959429;28;20466;-46
2021/12/27 06:43:00;;;;;;;16.03;9.30;;;4.90;89.80;;;;;;4963193;28;20949;-46
2021/12/27 06:45:27;;;;;;;24.50;11.47;;;4.90;89.80;;;;;;4963067;28;20474;-46
2021/12/27 06:48:03;;;;;;;18.13;9.90;;;4.90;89.80;;;;;;4960724;28;21035;-46
2021/12/27 06:50:30;;;;;;;20.60;11.83;;;4.90;89.80;;;;;;4961809;28;20462;-46
2021/12/27 06:52:57;;;;;;;17.80;10.80;;;5.00;89.80;;;;;;4963294;28;20845;-45
2021/12/27 06:55:23;;;;;;;19.47;10.73;;;4.90;89.80;;;;;;4961579;28;20499;-45
2021/12/27 06:57:50;;;;;;;20.40;11.00;;;4.90;89.80;;;;;;4958912;28;20492;-46
2021/12/27 07:00:17;;;;;;;18.17;11.27;;;4.90;89.80;;;;;;4960857;28;20500;-45
2021/12/27 07:02:45;;;;;;;19.67;12.03;;;4.90;89.80;;;;;;4962400;28;20454;-47
2021/12/27 07:05:13;;;;;;;16.10;11.10;;;4.90;89.80;;;;;;4959783;28;20482;-45
2021/12/27 07:07:40;;;;;;;20.80;13.10;;;4.90;89.80;;;;;;4960130;28;20470;-45
2021/12/27 07:10:11;;;;;;;27.90;13.23;;;4.90;89.80;;;;;;4959503;28;21111;-45
2021/12/27 07:12:38;;;;;;;22.67;13.47;;;4.90;89.80;;;;;;4962466;28;20478;-46
2021/12/27 07:15:06;;;;;;;22.33;13.10;;;5.00;89.80;;;;;;4960607;28;20504;-45
2021/12/27 07:17:32;;;;;;;21.13;11.87;;;5.00;89.80;;;;;;4959424;28;20468;-46
2021/12/27 07:19:59;;;;;;;22.07;12.37;;;5.00;89.80;;;;;;4961694;28;20566;-46
2021/12/27 07:22:26;;;;;;;19.67;12.47;;;5.00;89.80;;;;;;4960368;28;21075;-46
2021/12/27 07:24:53;;;;;;;20.30;13.07;;;5.00;89.80;;;;;;4961797;28;20561;-45
2021/12/27 07:27:20;;;;;;;19.73;11.90;;;5.00;89.80;;;;;;4965732;28;20464;-45
2021/12/27 07:29:47;;;;;;;24.13;13.37;;;5.00;89.80;;;;;;4966005;28;20473;-45
2021/12/27 07:32:14;;;;;;;23.53;11.90;;;5.00;89.80;;;;;;4959720;28;20999;-45
2021/12/27 07:34:41;;;;;;;22.57;12.17;;;5.00;89.80;;;;;;4966628;28;20944;-46
2021/12/27 07:37:08;;;;;;;21.50;13.33;;;5.00;89.80;;;;;;4965761;28;20454;-45
2021/12/27 07:39:35;;;;;;;22.00;13.57;;;5.00;89.80;;;;;;4965985;28;20465;-45
2021/12/27 07:42:03;;;;;;;22.80;13.47;;;5.00;89.80;;;;;;4965084;28;20474;-45
2021/12/27 07:44:30;;;;;;;22.70;13.33;;;5.00;89.80;;;;;;4983395;28;20461;-46
2021/12/27 07:46:56;;;;;;;21.63;12.83;;;5.00;89.80;;;;;;4964002;28;20470;-45
2021/12/27 07:49:23;;;;;;;20.70;11.93;;;5.00;89.80;;;;;;4966059;28;20967;-45
2021/12/27 07:51:50;;;;;;;18.37;10.93;;;5.00;89.80;;;;;;4964759;28;20462;-45
2021/12/27 07:54:17;;;;;;;25.97;11.20;;;5.00;89.80;;;;;;4962439;28;21017;-45
2021/12/27 07:56:44;;;;;;;23.10;10.87;;;5.10;89.80;;;;;;4964347;28;20468;-45
2021/12/27 07:59:11;;;;;;;19.97;11.53;;;5.00;89.80;;;;;;4958357;28;20954;-45
2021/12/27 08:01:39;;;;;;;24.47;12.73;;;5.00;89.80;;;;;;4964271;28;20458;-45
2021/12/27 08:04:08;;;;;;;24.93;14.90;;;5.00;89.80;;;;;;4965001;28;20473;-45
2021/12/27 08:06:36;;;;;;;29.23;15.40;;;5.10;89.80;;;;;;4961218;28;20550;-45
2021/12/27 08:09:05;;;;;;;24.73;15.20;;;5.10;89.80;;;;;;4967826;28;20455;-45
2021/12/27 08:11:32;;;;;;;29.30;14.57;;;5.10;89.80;;;;;;4966086;28;20480;-45
2021/12/27 08:13:59;;;;;;;19.70;13.13;;;5.10;89.80;;;;;;4965390;28;20511;-46
2021/12/27 08:16:27;;;;;;;21.60;14.03;;;5.10;89.80;;;;;;4950697;28;20788;-46
2021/12/27 08:18:55;;;;;;;31.37;16.97;;;5.10;89.80;;;;;;4964125;28;20505;-46
2021/12/27 08:21:22;;;;;;;32.20;15.40;;;5.10;89.80;;;;;;4963155;28;20541;-45
2021/12/27 08:23:50;;;;;;;27.63;14.63;;;5.10;89.80;;;;;;4967308;28;20585;-45
2021/12/27 08:26:18;;;;;;;24.40;14.50;;;5.10;89.80;;;;;;4965813;28;20494;-45
2021/12/27 08:28:47;;;;;;;27.20;14.00;;;5.10;89.80;;;;;;4965483;28;20462;-45
2021/12/27 08:31:14;;;;;;;23.60;14.60;;;5.10;89.80;;;;;;4967952;28;20447;-45
2021/12/27 08:33:40;;;;;;;27.10;15.80;;;5.10;89.80;;;;;;4979126;28;20468;-45
2021/12/27 08:36:07;;;;;;;27.50;14.03;;;5.20;89.80;;;;;;4964355;28;20549;-45
2021/12/27 08:38:34;;;;;;;26.23;13.13;;;5.20;89.80;;;;;;4976431;28;20462;-45
2021/12/27 08:41:04;;;;;;;30.07;15.80;;;5.20;89.80;;;;;;4960608;28;20469;-45
2021/12/27 08:43:33;;;;;;;25.90;12.67;;;5.20;89.80;;;;;;4965538;28;20473;-46
2021/12/27 08:46:00;;;;;;;22.73;12.30;;;5.20;89.80;;;;;;4966090;28;20981;-47
2021/12/27 08:48:27;;;;;;;29.20;14.43;;;5.30;89.80;;;;;;4964890;28;20940;-48
2021/12/27 08:50:54;;;;;;;20.87;13.03;;;5.30;89.80;;;;;;4964834;28;20484;-46
2021/12/27 08:53:21;;;;;;;33.07;14.87;;;5.30;89.80;;;;;;4965268;28;20466;-46
2021/12/27 08:55:48;;;;;;;24.40;14.27;;;5.30;89.80;;;;;;4963371;28;20494;-47
2021/12/27 08:58:15;;;;;;;34.60;14.93;;;5.20;89.80;;;;;;4964906;28;20466;-47
2021/12/27 09:00:42;;;;;;;24.80;12.77;;;5.30;89.80;;;;;;4963242;28;20976;-47
2021/12/27 09:03:12;;;;;;;46.50;17.30;;;5.30;89.80;;;;;;4964196;28;20814;-47
2021/12/27 09:05:41;;;;;;;37.27;15.97;;;5.30;89.80;;;;;;4962309;28;20968;-47
2021/12/27 09:08:08;;;;;;;37.37;18.00;;;5.30;89.80;;;;;;4963047;28;20551;-47
2021/12/27 09:10:35;;;;;;;58.57;22.17;;;5.30;89.80;;;;;;4980275;28;20470;-47
2021/12/27 09:13:03;;;;;;;39.00;16.60;;;5.30;89.80;;;;;;4959729;28;20466;-47
2021/12/27 09:15:31;;;;;;;41.23;16.67;;;5.30;89.80;;;;;;4962411;28;20522;-46
2021/12/27 09:17:58;;;;;;;30.87;15.03;;;5.40;89.80;;;;;;4962546;28;20488;-47
2021/12/27 09:20:27;;;;;;;24.17;13.87;;;5.30;89.80;;;;;;4963152;28;20490;-47
2021/12/27 09:22:54;;;;;;;40.57;18.87;;;5.30;89.80;;;;;;4964141;28;20477;-47
2021/12/27 09:25:21;;;;;;;30.13;15.53;;;5.40;89.80;;;;;;4961084;28;20471;-47
2021/12/27 09:27:48;;;;;;;37.00;13.17;;;5.30;89.80;;;;;;4966374;28;20553;-47
2021/12/27 09:30:15;;;;;;;31.03;13.00;;;5.40;89.80;;;;;;4977144;28;20461;-47
2021/12/27 09:32:42;;;;;;;29.30;13.03;;;5.40;89.80;;;;;;4966466;28;20466;-47
2021/12/27 09:35:09;;;;;;;25.13;12.47;;;5.40;89.80;;;;;;4960282;28;21034;-47
2021/12/27 09:37:36;;;;;;;28.63;13.60;;;5.40;89.80;;;;;;4961496;28;20458;-47
2021/12/27 09:40:03;;;;;;;24.03;13.83;;;5.40;89.80;;;;;;4962467;28;20939;-47
2021/12/27 09:42:31;;;;;;;30.03;13.47;;;5.40;89.80;;;;;;4964850;28;20550;-47
2021/12/27 09:44:58;;;;;;;36.90;13.73;;;5.50;89.80;;;;;;4964339;28;20987;-47
2021/12/27 09:47:24;;;;;;;32.40;11.87;;;5.50;89.80;;;;;;4960360;28;20541;-46
2021/12/27 09:50:04;;;;;;;27.40;13.67;;;5.50;89.80;;;;;;4962961;28;20458;-47
2021/12/27 09:52:32;;;;;;;29.20;12.73;;;5.50;89.80;;;;;;4961798;28;20470;-47
2021/12/27 09:55:03;;;;;;;35.33;17.13;;;5.50;89.80;;;;;;4962393;28;20493;-47
2021/12/27 09:57:33;;;;;;;33.63;15.10;;;5.50;89.80;;;;;;4946997;28;21002;-47
2021/12/27 10:00:00;;;;;;;29.70;15.50;;;5.50;89.80;;;;;;4961814;28;20823;-47
2021/12/27 10:02:27;;;;;;;26.97;15.10;;;5.60;89.80;;;;;;4964603;28;21279;-47
2021/12/27 10:04:54;;;;;;;25.37;12.10;;;5.60;89.80;;;;;;4963275;28;20457;-47
2021/12/27 10:07:22;;;;;;;25.77;13.33;;;5.60;89.80;;;;;;4960399;28;20484;-48
2021/12/27 10:09:59;;;;;;;26.67;14.20;;;5.70;89.80;;;;;;4961732;28;20472;-47
2021/12/27 10:12:27;;;;;;;21.47;12.70;;;5.60;89.80;;;;;;4964768;28;20967;-47
2021/12/27 10:14:59;;;;;;;24.13;14.00;;;5.70;89.80;;;;;;4962421;28;20490;-47
2021/12/27 10:17:30;;;;;;;22.57;12.53;;;5.70;89.80;;;;;;4959783;28;21161;-47
2021/12/27 10:20:18;;;;;;;21.70;13.00;;;5.70;89.80;;;;;;4961112;28;20454;-47
2021/12/27 10:22:52;;;;;;;26.60;12.27;;;5.70;89.80;;;;;;4961223;28;20564;-47
2021/12/27 10:38:40;;;;;;;28.83;14.27;;;5.80;89.80;;;;;;5125275;27;20375;-48
2021/12/27 10:41:11;;;;;;;32.20;15.37;;;6.30;89.80;;;;;;5123492;27;20802;-48
2021/12/27 10:43:45;;;;;;;27.07;13.90;;;6.20;89.80;;;;;;5116302;28;20455;-49
2021/12/27 10:46:34;;;;;;;26.00;12.63;;;6.20;89.80;;;;;;5122727;27;21173;-49
2021/12/27 11:01:47;;;;;;;26.63;16.13;;;6.10;89.80;;;;;;5072820;28;20572;-48
2021/12/27 11:04:19;;;;;;;25.07;15.60;;;6.30;89.80;;;;;;5072663;28;20506;-48
2021/12/27 11:06:48;;;;;;;31.03;16.60;;;6.30;89.80;;;;;;5071651;28;20517;-48
2021/12/27 11:09:16;;;;;;;27.47;14.90;;;6.20;89.80;;;;;;5071999;28;20480;-48
2021/12/27 11:11:42;;;;;;;25.40;14.10;;;6.20;89.80;;;;;;5065168;28;20457;-48
2021/12/27 11:14:09;;;;;;;29.23;15.80;;;6.30;89.80;;;;;;5071887;28;20462;-48
2021/12/27 11:16:36;;;;;;;27.37;13.03;;;6.20;89.80;;;;;;5068336;28;20658;-48
2021/12/27 11:19:04;;;;;;;28.53;16.27;;;6.20;89.80;;;;;;5073724;28;20464;-48
2021/12/27 11:21:35;;;;;;;26.40;13.90;;;6.20;89.80;;;;;;5070590;28;20457;-48
2021/12/27 11:24:03;;;;;;;23.60;14.30;;;6.30;89.80;;;;;;5072380;28;20465;-48
2021/12/27 11:26:33;;;;;;;31.93;15.00;;;6.30;89.80;;;;;;5074262;28;20465;-48
2021/12/27 11:29:13;;;;;;;26.10;14.23;;;6.20;89.80;;;;;;5072283;28;20468;-48
2021/12/27 11:31:41;;;;;;;31.53;15.40;;;6.20;89.80;;;;;;5070625;28;20627;-48
2021/12/27 11:34:12;;;;;;;27.13;15.00;;;6.20;89.80;;;;;;5070500;28;20756;-48
2021/12/27 11:36:44;;;;;;;32.10;17.00;;;6.20;89.80;;;;;;5072020;28;20505;-48
2021/12/27 11:39:32;;;;;;;31.30;17.27;;;6.30;89.80;;;;;;5071697;28;20465;-48
2021/12/27 11:42:06;;;;;;;40.00;22.40;;;6.30;89.80;;;;;;5077669;28;20466;-48
2021/12/27 11:44:53;;;;;;;36.50;21.20;;;6.40;89.80;;;;;;5070328;28;20509;-49
2021/12/27 11:47:30;;;;;;;39.03;19.03;;;6.50;89.80;;;;;;5072341;28;20488;-48
2021/12/27 11:49:59;;;;;;;50.23;25.70;;;6.50;89.80;;;;;;5071820;28;21009;-48
2021/12/27 11:52:45;;;;;;;43.57;21.50;;;6.50;89.80;;;;;;5067189;28;20464;-49
2021/12/27 11:55:14;;;;;;;41.43;23.10;;;6.50;89.80;;;;;;5064250;28;21622;-48
2021/12/27 11:57:53;;;;;;;47.87;23.83;;;6.50;89.80;;;;;;5068685;28;20542;-48
2021/12/27 12:00:26;;;;;;;53.30;24.20;;;6.50;89.80;;;;;;5073776;28;20611;-48
2021/12/27 12:02:56;;;;;;;53.40;25.37;;;6.60;89.80;;;;;;5055566;28;20482;-48
2021/12/27 12:05:39;;;;;;;47.33;20.80;;;6.60;89.80;;;;;;5059066;28;20454;-48
2021/12/27 12:08:08;;;;;;;33.70;19.83;;;6.60;89.80;;;;;;5058867;28;21006;-48
2021/12/27 12:10:37;;;;;;;40.90;20.10;;;6.60;89.80;;;;;;5055939;28;20490;-49
2021/12/27 12:13:15;;;;;;;43.83;20.97;;;6.60;89.80;;;;;;5053304;28;20556;-48
2021/12/27 12:15:58;;;;;;;48.53;20.77;;;6.60;89.80;;;;;;5036972;28;20474;-48
2021/12/27 12:18:26;;;;;;;40.80;19.60;;;6.70;89.80;;;;;;5054079;28;20481;-49
2021/12/27 12:20:53;;;;;;;36.03;18.27;;;6.70;89.80;;;;;;5056266;28;20454;-48
2021/12/27 12:23:55;;;;;;;37.57;18.80;;;6.70;89.80;;;;;;5056403;28;20608;-48
2021/12/27 12:26:22;;;;;;;34.20;18.60;;;6.70;89.80;;;;;;5052555;28;20556;-48
2021/12/27 12:28:57;;;;;;;36.60;20.07;;;6.70;89.80;;;;;;5060422;28;20455;-50
2021/12/27 12:31:31;;;;;;;41.47;19.10;;;6.70;89.80;;;;;;5057766;28;21017;-50
2021/12/27 12:34:18;;;;;;;40.30;20.73;;;6.70;89.80;;;;;;5056193;28;20477;-49
2021/12/27 12:37:00;;;;;;;43.80;20.27;;;6.70;89.80;;;;;;5058337;28;20462;-48
2021/12/27 12:39:35;;;;;;;37.90;20.30;;;6.80;89.80;;;;;;5052607;28;20887;-51
2021/12/27 12:42:13;;;;;;;41.00;18.33;;;6.80;89.80;;;;;;5056894;28;20473;-48
2021/12/27 12:44:59;;;;;;;39.40;17.40;;;6.80;89.80;;;;;;5053653;28;20458;-48
2021/12/27 12:47:43;;;;;;;42.13;21.77;;;6.80;89.80;;;;;;5055510;28;20453;-48
2021/12/27 12:50:21;;;;;;;41.97;20.03;;;6.90;89.80;;;;;;5057196;28;20840;-48
2021/12/27 12:53:03;;;;;;;41.50;18.83;;;6.90;89.80;;;;;;5055460;28;20974;-48
2021/12/27 12:55:33;;;;;;;40.73;18.97;;;6.90;89.80;;;;;;5057387;28;20577;-48
2021/12/27 12:57:59;;;;;;;34.37;20.80;;;6.90;89.80;;;;;;5053852;28;20472;-49
2021/12/27 13:00:29;;;;;;;43.70;20.77;;;6.90;89.80;;;;;;5055221;28;20996;-49
2021/12/27 13:03:15;;;;;;;35.60;18.03;;;7.00;89.80;;;;;;5066006;28;20928;-49
2021/12/27 13:05:42;;;;;;;40.20;18.57;;;7.00;89.80;;;;;;5056552;28;20466;-49
2021/12/27 13:08:13;;;;;;;42.20;18.87;;;7.00;89.80;;;;;;5058731;28;21007;-48
2021/12/27 13:10:40;;;;;;;46.57;20.67;;;7.00;89.80;;;;;;5050823;28;20577;-49
2021/12/27 13:13:10;;;;;;;37.23;19.40;;;7.00;89.80;;;;;;5048643;28;20504;-49
2021/12/27 13:15:48;;;;;;;38.07;21.17;;;7.10;89.80;;;;;;5053063;28;20462;-48
2021/12/27 13:18:17;;;;;;;39.87;22.17;;;7.10;89.80;;;;;;5052787;28;20469;-48
2021/12/27 13:21:02;;;;;;;31.90;17.23;;;7.10;89.80;;;;;;5051472;28;20469;-49